Nantucket, MA

7:57 PM EST on December 24, 2014 (GMT -0500)
Brant Point/Cliff | Change Station
CLOSE
Current Station
Personal Weather Station
Location: Nantucket, MA
Elevation: 30 ft
Nearby Weather Stations
Active Advisory: Wind Advisory

Elev 30 ft 41.29 °N, 70.10 °W | Updated 4 seconds ago

Overcast
Overcast
59.0 °F
Feels Like 59.0 °F
N
6.0
Wind Variable Wind from SE
Gusts 14.0 mph

Today
High -- | Low -- °F
--% Chance of Precip.
Yesterday
High -- | Low -- °F
Precip. -- in
7:04 AM 4:16 PM
Waxing Crescent, 12% visible
Pressure 29.78 in
Visibility 0.2 miles
Clouds
Dew Point Not available.
Humidity Not available.
Rainfall 0.00 in
Snow Depth Not available.
UV Not available.
Pollen .10 out of 12
Air Quality Not available.
Flu Activity Not available.
METAR KACK 250053Z 17016KT 1/4SM R24/2200V2600FT -RA FG VV002 13/12 A2978 RMK AO2 SLP084 P0000 T01280122

More Conditions Fewer Conditions

Pressure 29.78 in
Visibility 0.2 miles
Clouds
Dew Point Not available.
Humidity Not available.
Rainfall 0.00 in
Snow Depth Not available.
UV Not available.
Pollen .10 out of 12
Air Quality Not available.
Flu Activity Not available.
METAR KACK 250053Z 17016KT 1/4SM R24/2200V2600FT -RA FG VV002 13/12 A2978 RMK AO2 SLP084 P0000 T01280122

More Conditions Fewer Conditions

10-Day Weather Forecast

Almanac

Astronomy

Dec. 24, 2014 Rise Set
Actual Time
Civil Twilight
Nautical Twilight
Astronomical Twilight
Moon
Length of Visible Light
Length of Day
Tomorrow will be .
, % of the Moon is Illuminated

Today's Extremes

State Highs State Lows

Community

WunderPhotos

Upload Photos

1,780,194 photos uploaded!

WunderBlogs® & News

Nearby

Air Quality

  Air Quality AQ Index Pollutant
Not available.

Snow Depth

Station Depth Elevation

Earthquake Activity

City Distance Mag. Time & Date
Minimum magnitude displayed is 2.5.

Coastal Water Temperatures

Place Temperature

Nearby Weather Stations